Impacts TAF Board
For situational awareness. Not to be used for flight planning purposes.
IDs:

KMCB - McComb/Lewis Fld, MS, US

Issued at 1738 UTC 23 Jan 2019
Updated at 1739 UTC 23 Jan 2019
Potential Impact None Slight Moderate High
Time<<24/06Z 24/07Z 24/08Z 24/09Z 24/10Z 24/11Z 24/12Z 24/13Z 24/14Z 24/15Z 24/16Z 24/17Z 24/18Z>>
Type PRVL PRVL PRVL PRVL PRVL PRVL PRVL PRVL PRVL PRVL PRVL PRVL
VIS >6 >6 >6 >6 >6 >6 >6 >6 >6 >6 >6 >6
CIG 25 25 -- -- -- -- -- -- -- -- -- --
Cover OVC OVC SCT SCT SCT SCT SCT SCT SCT SCT SCT SCT
FltCat MVFR MVFR VFR VFR VFR VFR VFR VFR VFR VFR VFR VFR
WX -- -- -- -- -- -- -- -- -- -- -- --
WDir 320 320 320 320 320 320 320 320 320 320 320 320
WSpd 11 11 8 8 8 8 8 8 8 8 8 8
WGst -- -- -- -- -- -- -- -- -- -- -- --
Raw TAF
KMCB 231738Z 2318/2418 31012KT 5SM SHRA BR SCT007 BKN030
  TEMPO 2322/2324 2SM RA BR
  FM240000 32011KT P6SM OVC015
  FM240400 32011KT P6SM SCT015 OVC025
  FM240800 32008KT P6SM SCT100


METAR Board
Radar Display
Forecast Discussion
For situational awareness. Not to be used for flight planning purposes.